Terminal Aerodrome Forecast
Issued by NWS Wilmington, OH

Current Version | Previous Version | Text Only | Print | Product List | Glossary Off
Versions: 1 2 3 4 5 6 7 8 9 10 11 12 13 14 15 16 17 18 19 20 21 22 23 24 25 26

491
FTUS41 KILN 080859 AAA
TAFCVG
TAF AMD
KCVG 080859Z 0809/0912 29010KT P6SM SCT025 BKN090
     FM081200 28010G18KT P6SM SCT025 SCT100
     FM081800 28012G20KT P6SM BKN035
     FM090300 28010G18KT P6SM OVC025=

USA.gov is the U.S. government's official web portal to all federal, state and local government web resources and services.